createdAt,value
2023-04-26T00:01:04.180Z,22.23
2023-04-26T00:03:40.652Z,23.23
2023-04-26T00:06:12.245Z,21.17
2023-04-26T00:08:40.807Z,20.73
2023-04-26T00:11:08.437Z,25.00
2023-04-26T00:13:37.178Z,17.38
2023-04-26T00:16:08.517Z,23.00
2023-04-26T00:18:36.085Z,18.88
2023-04-26T00:21:03.769Z,22.65
2023-04-26T00:23:32.125Z,21.73
2023-04-26T00:26:00.981Z,18.63
2023-04-26T00:28:30.146Z,19.77
2023-04-26T00:33:26.463Z,24.77
2023-04-26T00:35:54.240Z,25.65
2023-04-26T00:38:21.901Z,30.33
2023-04-26T00:40:49.430Z,19.70
2023-04-26T00:43:16.509Z,25.50
2023-04-26T00:45:43.833Z,21.42
2023-04-26T00:48:12.181Z,26.60
2023-04-26T00:50:39.737Z,18.30
2023-04-26T00:53:09.056Z,16.60
2023-04-26T00:55:40.558Z,19.55
2023-04-26T01:00:34.784Z,18.45
2023-04-26T01:03:02.240Z,18.10
2023-04-26T01:05:32.214Z,16.02
2023-04-26T01:08:02.091Z,14.88
2023-04-26T01:10:36.127Z,20.58
2023-04-26T01:13:07.913Z,18.00
2023-04-26T01:15:36.207Z,15.40
2023-04-26T01:18:03.577Z,20.20
2023-04-26T01:20:30.970Z,19.83
2023-04-26T01:22:58.196Z,17.75
2023-04-26T01:25:25.372Z,13.63
2023-04-26T01:27:52.543Z,17.88
2023-04-26T01:30:19.728Z,16.65
2023-04-26T01:33:12.239Z,12.38
2023-04-26T01:35:39.461Z,15.73
2023-04-26T01:38:06.735Z,13.07
2023-04-26T01:45:59.436Z,13.23
2023-04-26T01:48:30.908Z,13.40
2023-04-26T01:51:01.077Z,14.25
2023-04-26T01:53:28.289Z,18.10
2023-04-26T01:55:55.726Z,16.02
2023-04-26T01:58:22.972Z,18.70
2023-04-26T02:00:50.477Z,16.42
2023-04-26T02:03:18.189Z,13.40
2023-04-26T02:05:45.354Z,16.75
2023-04-26T02:08:12.514Z,16.05
2023-04-26T02:10:45.559Z,16.73
2023-04-26T02:13:13.157Z,19.45
2023-04-26T02:15:40.764Z,13.07
2023-04-26T02:18:09.571Z,17.80
2023-04-26T02:20:37.910Z,10.27
2023-04-26T02:23:05.146Z,17.90
2023-04-26T02:25:32.319Z,17.75
2023-04-26T02:28:02.604Z,17.35
2023-04-26T02:30:30.430Z,16.08
2023-04-26T02:32:58.979Z,18.20
2023-04-26T02:35:26.732Z,16.05
2023-04-26T02:37:53.931Z,11.77
2023-04-26T02:40:22.056Z,21.42
2023-04-26T02:42:49.312Z,22.77
2023-04-26T02:45:16.594Z,17.48
2023-04-26T02:47:44.356Z,15.25
2023-04-26T02:50:12.097Z,11.98
2023-04-26T02:52:39.945Z,11.07
2023-04-26T02:55:08.636Z,15.77
2023-04-26T02:57:36.006Z,18.40
2023-04-26T03:00:05.582Z,17.77
2023-04-26T03:02:33.573Z,13.07
2023-04-26T03:05:00.921Z,16.75
2023-04-26T03:07:28.517Z,13.80
2023-04-26T03:09:55.878Z,16.23
2023-04-26T03:12:23.064Z,13.30
2023-04-26T03:14:50.273Z,18.73
2023-04-26T03:17:18.236Z,16.27
2023-04-26T03:19:45.623Z,15.93
2023-04-26T03:22:16.371Z,13.48
2023-04-26T03:24:44.659Z,15.02
2023-04-26T03:27:13.361Z,20.10
2023-04-26T03:29:42.193Z,13.25
2023-04-26T03:32:11.332Z,13.73
2023-04-26T03:34:39.136Z,11.93
2023-04-26T03:37:06.984Z,12.15
2023-04-26T03:39:34.494Z,14.00
2023-04-26T03:42:01.882Z,14.75
2023-04-26T03:44:31.082Z,16.27
2023-04-26T03:46:59.036Z,16.17
2023-04-26T03:49:27.010Z,11.80
2023-04-26T03:51:56.169Z,11.63
2023-04-26T03:54:23.607Z,15.13
2023-04-26T03:56:51.217Z,13.45
2023-04-26T03:59:20.537Z,20.25
2023-04-26T04:04:17.408Z,17.23
2023-04-26T04:06:46.371Z,12.25
2023-04-26T04:09:14.271Z,19.55
2023-04-26T04:11:41.608Z,11.75
2023-04-26T04:14:08.790Z,14.73
2023-04-26T04:16:36.106Z,15.43
2023-04-26T04:19:03.972Z,15.32
2023-04-26T04:21:32.060Z,16.67
2023-04-26T04:24:00.851Z,16.98
2023-04-26T04:26:28.255Z,14.50
2023-04-26T04:28:55.800Z,19.27
2023-04-26T04:31:23.349Z,16.45
2023-04-26T04:33:50.930Z,14.57
2023-04-26T04:36:19.168Z,17.70
2023-04-26T04:38:49.780Z,12.02
2023-04-26T04:41:22.378Z,18.08
2023-04-26T04:43:50.974Z,16.20
2023-04-26T04:46:18.145Z,15.10
2023-04-26T04:48:45.830Z,16.33
2023-04-26T04:51:13.403Z,17.33
2023-04-26T04:53:41.033Z,16.20
2023-04-26T04:56:08.802Z,19.98
2023-04-26T04:58:36.242Z,15.00
2023-04-26T05:01:03.414Z,15.45
2023-04-26T05:03:41.879Z,15.38
2023-04-26T05:06:09.920Z,16.52
2023-04-26T05:08:37.237Z,17.23
2023-04-26T05:11:06.302Z,21.95
2023-04-26T05:13:33.690Z,17.98
2023-04-26T05:16:01.055Z,18.73
2023-04-26T05:18:28.638Z,21.23
2023-04-26T05:20:56.246Z,15.95
2023-04-26T05:23:24.312Z,15.20
2023-04-26T05:25:52.632Z,18.50
2023-04-26T05:28:51.269Z,22.50
2023-04-26T05:31:32.947Z,20.55
2023-04-26T05:34:17.366Z,20.75
2023-04-26T05:36:50.280Z,19.05
2023-04-26T05:39:23.802Z,20.65
2023-04-26T05:41:52.200Z,19.08
2023-04-26T05:44:19.675Z,16.38
2023-04-26T05:46:47.601Z,22.02
2023-04-26T05:49:16.068Z,22.33
2023-04-26T05:51:43.747Z,22.45
2023-04-26T05:54:12.058Z,22.10
2023-04-26T05:56:40.264Z,17.80
2023-04-26T05:59:12.090Z,22.05
2023-04-26T06:01:39.682Z,23.58
2023-04-26T06:04:08.087Z,26.52
2023-04-26T06:06:46.497Z,17.33
2023-04-26T06:09:14.648Z,18.58
2023-04-26T06:11:42.279Z,24.02
2023-04-26T06:14:19.821Z,23.80
2023-04-26T06:16:57.996Z,29.52
2023-04-26T06:19:25.642Z,27.17
2023-04-26T06:21:55.313Z,25.55
2023-04-26T06:24:25.247Z,21.63
2023-04-26T06:26:52.795Z,29.67
2023-04-26T06:29:21.984Z,24.42
2023-04-26T06:31:49.463Z,27.50
2023-04-26T06:34:20.405Z,26.20
2023-04-26T06:36:48.404Z,23.67
2023-04-26T06:39:17.183Z,26.52
2023-04-26T06:41:44.902Z,24.40
2023-04-26T06:44:12.803Z,21.45
2023-04-26T06:46:43.473Z,19.27
2023-04-26T06:49:11.672Z,20.67
2023-04-26T06:51:38.910Z,22.63
2023-04-26T06:54:06.358Z,23.05
2023-04-26T06:56:33.583Z,28.15
2023-04-26T06:59:04.662Z,23.55
2023-04-26T07:01:34.136Z,24.58
2023-04-26T07:04:10.976Z,23.73
2023-04-26T07:06:39.394Z,17.92
2023-04-26T07:09:08.036Z,25.45
2023-04-26T07:11:35.740Z,21.13
2023-04-26T07:14:03.052Z,17.58
2023-04-26T07:16:30.556Z,18.85
2023-04-26T07:18:58.527Z,18.08
2023-04-26T07:21:29.418Z,18.83
2023-04-26T07:23:58.242Z,28.30
2023-04-26T07:26:27.704Z,20.88
2023-04-26T07:28:55.508Z,23.67
2023-04-26T07:31:23.162Z,24.90
2023-04-26T07:33:50.635Z,20.75
2023-04-26T07:36:18.395Z,27.75
2023-04-26T07:38:46.009Z,16.73
2023-04-26T07:41:13.317Z,19.58
2023-04-26T07:43:40.532Z,20.45
2023-04-26T07:46:08.272Z,14.20
2023-04-26T07:48:35.805Z,16.85
2023-04-26T07:51:28.665Z,19.38
2023-04-26T07:53:56.197Z,12.93
2023-04-26T07:56:24.652Z,16.80
2023-04-26T07:58:51.959Z,8.57
2023-04-26T08:01:19.118Z,15.10
2023-04-26T08:03:48.921Z,13.57
2023-04-26T08:06:22.240Z,13.18
2023-04-26T08:08:51.129Z,12.98
2023-04-26T08:11:18.745Z,15.75
2023-04-26T08:13:46.555Z,8.23
2023-04-26T08:16:14.105Z,12.05
2023-04-26T08:18:41.845Z,19.52
2023-04-26T08:21:09.981Z,16.98
2023-04-26T08:23:37.690Z,9.82
2023-04-26T08:26:08.075Z,14.77
2023-04-26T08:28:36.293Z,9.65
2023-04-26T08:31:04.654Z,18.52
2023-04-26T08:33:34.550Z,15.15
2023-04-26T08:36:02.349Z,13.77
2023-04-26T08:38:30.867Z,11.00
2023-04-26T08:41:03.567Z,11.17
2023-04-26T08:43:31.156Z,12.85
2023-04-26T08:46:01.861Z,8.80
2023-04-26T08:48:34.339Z,14.50
2023-04-26T08:51:27.595Z,8.57
2023-04-26T08:53:58.178Z,9.07
2023-04-26T08:56:27.586Z,9.63
2023-04-26T08:58:55.549Z,13.60
2023-04-26T09:01:24.561Z,8.68
2023-04-26T09:03:53.056Z,9.18
2023-04-26T09:06:21.692Z,13.30
2023-04-26T09:08:51.004Z,12.77
2023-04-26T09:11:18.683Z,9.40
2023-04-26T09:13:46.364Z,11.18
2023-04-26T09:16:14.271Z,7.13
2023-04-26T09:18:57.358Z,13.68
2023-04-26T09:21:30.737Z,9.27
2023-04-26T09:24:06.736Z,16.50
2023-04-26T09:26:37.302Z,12.27
2023-04-26T09:29:15.977Z,11.10
2023-04-26T09:31:49.511Z,11.48
2023-04-26T09:34:18.325Z,12.32
2023-04-26T09:36:57.037Z,10.40
2023-04-26T09:39:40.266Z,9.20
2023-04-26T09:42:09.463Z,11.15
2023-04-26T09:47:10.095Z,13.02
2023-04-26T09:49:51.652Z,9.45
2023-04-26T09:52:20.370Z,8.90
2023-04-26T09:54:53.117Z,8.18
2023-04-26T09:57:23.521Z,11.75
2023-04-26T09:59:55.324Z,9.57
2023-04-26T10:02:26.833Z,6.47
2023-04-26T10:04:57.285Z,10.93
2023-04-26T10:07:26.227Z,11.23
2023-04-26T10:09:57.237Z,7.82
2023-04-26T10:12:24.913Z,10.93
2023-04-26T10:14:52.740Z,7.60
2023-04-26T10:17:21.165Z,8.98
2023-04-26T10:19:57.721Z,9.10
2023-04-26T10:22:33.703Z,8.45
2023-04-26T10:25:01.493Z,9.27
2023-04-26T10:27:46.837Z,10.43
2023-04-26T10:30:17.184Z,11.02
2023-04-26T10:33:08.134Z,8.20
2023-04-26T10:35:38.141Z,9.80
2023-04-26T10:38:10.386Z,8.65
2023-04-26T10:40:41.649Z,7.82
2023-04-26T10:43:13.709Z,8.70
2023-04-26T10:45:49.229Z,9.82
2023-04-26T10:48:31.530Z,12.48
2023-04-26T10:51:02.677Z,9.68
2023-04-26T10:53:46.284Z,7.15
2023-04-26T10:56:25.980Z,8.07
2023-04-26T11:01:46.612Z,11.35
2023-04-26T11:04:16.847Z,8.17
2023-04-26T11:06:57.781Z,12.48
2023-04-26T11:09:41.339Z,6.78
2023-04-26T11:12:29.564Z,7.90
2023-04-26T11:15:01.199Z,9.13
2023-04-26T11:17:28.918Z,6.00
2023-04-26T11:19:56.653Z,8.30
2023-04-26T11:22:24.898Z,8.27
2023-04-26T11:24:52.942Z,14.70
2023-04-26T11:27:20.612Z,7.80
2023-04-26T11:29:48.212Z,5.88
2023-04-26T11:32:16.381Z,10.52
2023-04-26T11:34:44.388Z,8.80
2023-04-26T11:37:12.773Z,7.68
2023-04-26T11:39:40.634Z,8.93
2023-04-26T11:42:14.773Z,11.18
2023-04-26T11:44:42.489Z,8.15
2023-04-26T11:47:10.869Z,9.70
2023-04-26T11:49:39.509Z,7.70
2023-04-26T11:52:08.847Z,9.43
2023-04-26T11:54:37.864Z,8.98
2023-04-26T11:57:18.120Z,8.35
2023-04-26T11:59:46.415Z,8.57
2023-04-26T12:02:14.430Z,7.30
2023-04-26T12:04:44.258Z,7.20
2023-04-26T12:07:12.205Z,6.53
2023-04-26T12:09:42.792Z,6.45
2023-04-26T12:12:14.536Z,7.80
2023-04-26T12:14:42.429Z,7.68
2023-04-26T12:19:44.071Z,9.90
2023-04-26T12:22:13.481Z,9.75
2023-04-26T12:24:43.203Z,6.95
2023-04-26T12:27:21.930Z,7.07
2023-04-26T12:29:49.555Z,11.40
2023-04-26T12:32:17.257Z,7.20
2023-04-26T12:34:44.893Z,9.60
2023-04-26T12:37:12.681Z,9.48
2023-04-26T12:39:44.436Z,4.80
2023-04-26T12:42:12.310Z,8.18
2023-04-26T12:44:40.069Z,7.63
2023-04-26T12:47:08.303Z,5.13
2023-04-26T12:49:36.048Z,10.18
2023-04-26T12:52:06.620Z,6.85
2023-04-26T12:54:34.249Z,5.82
2023-04-26T12:57:06.557Z,9.35
2023-04-26T12:59:34.633Z,8.57
2023-04-26T13:02:03.947Z,6.93
2023-04-26T13:04:32.320Z,6.43
2023-04-26T13:07:00.740Z,5.75
2023-04-26T13:09:28.503Z,5.82
2023-04-26T13:11:56.619Z,5.07
2023-04-26T13:14:24.401Z,6.97
2023-04-26T13:16:52.578Z,9.93
2023-04-26T13:19:20.364Z,4.55
2023-04-26T13:21:48.600Z,7.80
2023-04-26T13:24:16.579Z,9.48
2023-04-26T13:26:44.279Z,5.20
2023-04-26T13:29:12.104Z,3.40
2023-04-26T13:31:40.179Z,9.07
2023-04-26T13:34:16.812Z,5.88
2023-04-26T13:36:44.752Z,6.75
2023-04-26T13:39:12.507Z,6.43
2023-04-26T13:41:43.219Z,6.88
2023-04-26T13:44:11.089Z,7.00
2023-04-26T13:46:39.104Z,5.22
2023-04-26T13:49:12.473Z,7.85
2023-04-26T13:51:40.528Z,5.15
2023-04-26T13:54:10.655Z,12.20
2023-04-26T13:56:38.612Z,4.95
2023-04-26T13:59:07.636Z,5.33
2023-04-26T14:01:36.313Z,8.52
2023-04-26T14:04:04.672Z,5.43
2023-04-26T14:06:34.322Z,6.82
2023-04-26T14:09:02.274Z,6.53
2023-04-26T14:11:30.940Z,5.33
2023-04-26T14:13:59.159Z,7.72
2023-04-26T14:16:27.129Z,5.65
2023-04-26T14:18:55.056Z,6.93
2023-04-26T14:21:22.819Z,5.97
2023-04-26T14:23:50.574Z,8.45
2023-04-26T14:26:18.510Z,6.10
2023-04-26T14:28:46.732Z,10.35
2023-04-26T14:31:14.608Z,5.32
2023-04-26T14:33:42.353Z,4.10
2023-04-26T14:36:10.065Z,7.93
2023-04-26T14:38:37.748Z,6.00
2023-04-26T14:41:05.561Z,10.85
2023-04-26T14:43:33.701Z,5.82
2023-04-26T14:46:03.435Z,8.98
2023-04-26T14:48:31.542Z,8.52
2023-04-26T14:51:00.194Z,7.65
2023-04-26T14:53:28.502Z,5.85
2023-04-26T14:56:00.288Z,7.22
2023-04-26T14:58:28.002Z,7.30
2023-04-26T15:00:56.004Z,7.15
2023-04-26T15:03:23.809Z,11.70
2023-04-26T15:05:51.669Z,13.30
2023-04-26T15:08:19.650Z,10.57
2023-04-26T15:10:47.526Z,7.50
2023-04-26T15:13:15.293Z,7.25
2023-04-26T15:15:43.035Z,6.40
2023-04-26T15:18:10.765Z,8.85
2023-04-26T15:20:41.661Z,9.25
2023-04-26T15:23:09.315Z,7.05
2023-04-26T15:25:42.298Z,13.73
2023-04-26T15:28:09.878Z,10.82
2023-04-26T15:30:37.436Z,8.85
2023-04-26T15:33:06.656Z,9.93
2023-04-26T15:35:35.885Z,5.75
2023-04-26T15:38:03.436Z,14.10
2023-04-26T15:40:32.751Z,12.23
2023-04-26T15:43:00.779Z,12.18
2023-04-26T15:45:28.396Z,7.93
2023-04-26T15:47:57.221Z,15.30
2023-04-26T15:52:52.759Z,11.30
2023-04-26T15:55:20.917Z,14.13
2023-04-26T15:57:48.521Z,50.88
2023-04-26T16:00:17.061Z,32.92
2023-04-26T16:02:49.066Z,14.18
2023-04-26T16:05:17.380Z,20.38
2023-04-26T16:07:45.057Z,5.37
2023-04-26T16:10:12.854Z,25.50
2023-04-26T16:12:41.752Z,9.50
2023-04-26T16:15:10.423Z,21.75
2023-04-26T16:17:38.846Z,24.98
2023-04-26T16:20:08.234Z,10.18
2023-04-26T16:22:36.601Z,16.98
2023-04-26T16:25:06.733Z,10.80
2023-04-26T16:27:37.023Z,8.13
2023-04-26T16:30:05.625Z,10.45
2023-04-26T16:32:34.007Z,9.20
2023-04-26T16:35:01.691Z,10.15
2023-04-26T16:37:29.313Z,10.27
2023-04-26T16:39:57.201Z,8.85
2023-04-26T16:42:29.877Z,14.40
2023-04-26T16:44:57.996Z,8.65
2023-04-26T16:47:25.579Z,13.55
2023-04-26T16:49:53.130Z,8.98
2023-04-26T16:52:20.891Z,7.78
2023-04-26T16:54:48.501Z,8.95
2023-04-26T16:57:16.524Z,11.43
2023-04-26T16:59:44.180Z,10.77
2023-04-26T17:02:14.045Z,8.93
2023-04-26T17:04:42.461Z,7.35
2023-04-26T17:07:11.034Z,8.23
2023-04-26T17:09:39.037Z,12.40
2023-04-26T17:12:07.528Z,10.98
2023-04-26T17:14:35.114Z,6.93
2023-04-26T17:17:02.700Z,9.70
2023-04-26T17:19:30.238Z,7.93
2023-04-26T17:21:58.158Z,9.90
2023-04-26T17:24:26.216Z,6.32
2023-04-26T17:26:53.936Z,4.43
2023-04-26T17:29:21.790Z,8.95
2023-04-26T17:31:49.418Z,10.75
2023-04-26T17:34:17.955Z,10.15
2023-04-26T17:36:47.434Z,12.45
2023-04-26T17:39:17.438Z,14.60
2023-04-26T17:41:45.175Z,15.38
2023-04-26T17:44:12.821Z,7.13
2023-04-26T17:46:40.745Z,7.07
2023-04-26T17:49:08.530Z,10.70
2023-04-26T17:51:36.186Z,13.82
2023-04-26T17:54:04.118Z,8.45
2023-04-26T17:56:31.687Z,10.30
2023-04-26T17:59:00.055Z,10.40
2023-04-26T18:01:28.964Z,11.23
2023-04-26T18:03:56.697Z,7.43
2023-04-26T18:06:24.512Z,6.07
2023-04-26T18:08:52.535Z,6.15
2023-04-26T18:11:21.308Z,4.68
2023-04-26T18:13:49.095Z,7.32
2023-04-26T18:16:22.716Z,7.15
2023-04-26T18:18:50.408Z,11.18
2023-04-26T18:21:17.979Z,3.95
2023-04-26T18:23:46.970Z,8.38
2023-04-26T18:26:14.603Z,9.80
2023-04-26T18:28:44.804Z,10.48
2023-04-26T18:31:12.476Z,11.20
2023-04-26T18:33:40.242Z,10.55
2023-04-26T18:36:08.110Z,9.98
2023-04-26T18:38:35.771Z,6.38
2023-04-26T18:41:03.515Z,15.80
2023-04-26T18:43:31.155Z,14.02
2023-04-26T18:45:59.060Z,7.53
2023-04-26T18:48:26.841Z,7.07
2023-04-26T18:50:56.396Z,6.95
2023-04-26T18:53:24.133Z,9.90
2023-04-26T18:55:56.219Z,11.82
2023-04-26T18:58:23.977Z,7.25
2023-04-26T19:00:55.957Z,10.95
2023-04-26T19:03:24.027Z,8.43
2023-04-26T19:05:51.977Z,6.57
2023-04-26T19:08:20.099Z,5.88
2023-04-26T19:10:47.798Z,7.75
2023-04-26T19:13:15.503Z,8.65
2023-04-26T19:15:43.280Z,7.70
2023-04-26T19:18:10.944Z,6.40
2023-04-26T19:20:38.709Z,6.10
2023-04-26T19:23:06.460Z,9.35
2023-04-26T19:25:35.120Z,10.98
2023-04-26T19:28:02.961Z,7.60
2023-04-26T19:30:30.871Z,11.90
2023-04-26T19:32:58.470Z,7.18
2023-04-26T19:35:26.347Z,12.75
2023-04-26T19:37:59.850Z,17.85
2023-04-26T19:40:32.723Z,8.85
2023-04-26T19:43:02.659Z,11.35
2023-04-26T19:45:30.417Z,14.52
2023-04-26T19:47:58.339Z,14.80
2023-04-26T19:50:26.319Z,11.52
2023-04-26T19:52:53.990Z,12.57
2023-04-26T19:55:21.932Z,11.38
2023-04-26T19:57:51.995Z,8.70
2023-04-26T20:00:21.282Z,12.95
2023-04-26T20:02:49.833Z,7.63
2023-04-26T20:05:17.839Z,13.88
2023-04-26T20:07:46.372Z,8.00
2023-04-26T20:10:14.713Z,7.05
2023-04-26T20:12:44.872Z,10.27
2023-04-26T20:15:15.179Z,8.73
2023-04-26T20:17:44.045Z,10.35
2023-04-26T20:20:12.779Z,9.40
2023-04-26T20:22:41.761Z,13.07
2023-04-26T20:27:38.426Z,11.80
2023-04-26T20:30:07.483Z,10.10
2023-04-26T20:32:35.566Z,10.48
2023-04-26T20:35:04.669Z,8.45
2023-04-26T20:40:00.614Z,10.63
2023-04-26T20:42:28.617Z,7.20
2023-04-26T20:45:02.021Z,7.10
2023-04-26T20:47:32.047Z,7.05
2023-04-26T20:49:59.738Z,8.20
2023-04-26T20:52:27.395Z,7.32
2023-04-26T20:54:57.124Z,8.10
2023-04-26T20:57:25.031Z,15.27
2023-04-26T20:59:53.053Z,10.38
2023-04-26T21:02:21.136Z,8.80
2023-04-26T21:04:49.138Z,10.15
2023-04-26T21:07:23.233Z,13.57
2023-04-26T21:09:51.109Z,9.30
2023-04-26T21:12:18.693Z,15.02
2023-04-26T21:14:47.744Z,11.38
2023-04-26T21:17:16.047Z,8.70
2023-04-26T21:19:44.519Z,8.05
2023-04-26T21:22:12.258Z,9.47
2023-04-26T21:24:39.814Z,8.68
2023-04-26T21:27:07.413Z,5.28
2023-04-26T21:29:34.929Z,8.40
2023-04-26T21:32:02.645Z,10.23
2023-04-26T21:34:30.254Z,7.57
2023-04-26T21:36:57.750Z,10.52
2023-04-26T21:39:25.423Z,11.07
2023-04-26T21:41:53.016Z,8.40
2023-04-26T21:44:20.649Z,7.57
2023-04-26T21:46:48.357Z,7.93
2023-04-26T21:49:16.393Z,8.13
2023-04-26T21:51:43.998Z,8.80
2023-04-26T21:54:11.694Z,8.25
2023-04-26T21:56:39.792Z,9.93
2023-04-26T21:59:08.886Z,11.25
2023-04-26T22:01:48.099Z,8.35
2023-04-26T22:04:16.075Z,8.80
2023-04-26T22:06:43.713Z,7.13
2023-04-26T22:09:11.710Z,10.95
2023-04-26T22:11:39.658Z,7.07
2023-04-26T22:14:08.689Z,9.23
2023-04-26T22:16:38.900Z,6.60
2023-04-26T22:19:06.534Z,12.55
2023-04-26T22:21:59.186Z,7.25
2023-04-26T22:24:27.095Z,9.13
2023-04-26T22:26:54.691Z,10.75
2023-04-26T22:29:22.300Z,8.68
2023-04-26T22:31:49.954Z,8.07
2023-04-26T22:34:20.116Z,7.75
2023-04-26T22:36:48.246Z,6.90
2023-04-26T22:39:19.592Z,9.48
2023-04-26T22:41:47.167Z,9.37
2023-04-26T22:44:15.112Z,11.75
2023-04-26T22:46:46.202Z,10.07
2023-04-26T22:49:14.618Z,9.18
2023-04-26T22:51:45.943Z,10.27
2023-04-26T22:54:18.513Z,7.05
2023-04-26T22:56:46.240Z,8.32
2023-04-26T22:59:13.946Z,8.73
2023-04-26T23:01:41.893Z,9.07
2023-04-26T23:04:11.766Z,7.68
2023-04-26T23:06:39.508Z,7.07
2023-04-26T23:09:07.128Z,6.60
2023-04-26T23:11:34.683Z,12.07
2023-04-26T23:14:02.573Z,4.70
2023-04-26T23:16:30.235Z,6.15
2023-04-26T23:19:00.816Z,7.65
2023-04-26T23:21:29.361Z,12.60
2023-04-26T23:23:57.435Z,8.73
2023-04-26T23:26:25.214Z,11.00
2023-04-26T23:28:52.787Z,6.45
2023-04-26T23:31:20.626Z,8.05
2023-04-26T23:33:48.377Z,11.20
2023-04-26T23:36:16.016Z,6.18
2023-04-26T23:38:43.630Z,7.38
2023-04-26T23:41:11.169Z,6.60
2023-04-26T23:43:38.760Z,10.93
2023-04-26T23:46:06.824Z,12.85
2023-04-26T23:48:34.562Z,6.25
2023-04-26T23:51:02.210Z,6.57
2023-04-26T23:53:29.914Z,5.63
2023-04-26T23:55:57.527Z,10.52
2023-04-26T23:58:25.076Z,7.40
